createdAt,value
2018-12-14T00:00:48.145Z,0.00
2018-12-14T00:01:48.046Z,0.00
2018-12-14T00:02:47.936Z,0.00
2018-12-14T00:03:47.820Z,0.00
2018-12-14T00:04:47.712Z,0.00
2018-12-14T00:05:47.611Z,0.00
2018-12-14T00:06:47.498Z,0.00
2018-12-14T00:07:47.387Z,0.00
2018-12-14T00:08:47.288Z,0.00
2018-12-14T00:09:47.169Z,0.00
2018-12-14T00:10:47.060Z,0.00
2018-12-14T00:11:46.954Z,0.00
2018-12-14T00:12:46.852Z,0.00
2018-12-14T00:13:46.743Z,0.00
2018-12-14T00:14:46.628Z,0.00
2018-12-14T00:15:46.528Z,0.00
2018-12-14T00:16:46.412Z,0.00
2018-12-14T00:17:46.302Z,0.00
2018-12-14T00:18:46.193Z,0.00
2018-12-14T00:19:46.093Z,0.00
2018-12-14T00:20:45.981Z,0.00
2018-12-14T00:21:45.874Z,0.00
2018-12-14T00:22:46.021Z,0.00
2018-12-14T00:23:45.670Z,0.00
2018-12-14T00:24:45.543Z,0.00
2018-12-14T00:25:45.436Z,0.00
2018-12-14T00:26:45.334Z,0.00
2018-12-14T00:27:45.223Z,0.00
2018-12-14T00:28:45.112Z,0.00
2018-12-14T00:29:45.005Z,0.00
2018-12-14T00:30:44.893Z,0.00
2018-12-14T00:31:44.785Z,0.00
2018-12-14T00:32:44.677Z,0.00
2018-12-14T00:33:44.585Z,0.00
2018-12-14T00:34:44.466Z,0.00
2018-12-14T00:35:44.353Z,0.00
2018-12-14T00:36:44.245Z,0.00
2018-12-14T00:37:44.141Z,0.00
2018-12-14T00:38:44.030Z,0.00
2018-12-14T00:39:43.918Z,0.00
2018-12-14T00:40:43.814Z,0.00
2018-12-14T00:41:43.703Z,0.00
2018-12-14T00:42:43.842Z,0.00
2018-12-14T00:43:43.484Z,0.00
2018-12-14T00:44:43.383Z,0.00
2018-12-14T00:45:43.270Z,0.00
2018-12-14T00:46:43.171Z,0.00
2018-12-14T00:47:43.062Z,0.00
2018-12-14T00:48:42.946Z,0.00
2018-12-14T00:49:42.836Z,0.00
2018-12-14T00:50:42.725Z,0.00
2018-12-14T00:51:42.616Z,0.00
2018-12-14T00:52:42.508Z,0.00
2018-12-14T00:53:42.400Z,0.00
2018-12-14T00:54:42.302Z,0.00
2018-12-14T00:55:42.190Z,0.00
2018-12-14T00:56:42.073Z,0.00
2018-12-14T00:57:41.965Z,0.00
2018-12-14T00:58:41.855Z,0.00
2018-12-14T00:59:41.755Z,0.00
2018-12-14T01:00:41.642Z,0.00
2018-12-14T01:01:41.531Z,0.00
2018-12-14T01:02:41.421Z,0.00
2018-12-14T01:03:41.319Z,0.00
2018-12-14T01:04:41.206Z,0.00
2018-12-14T01:05:41.106Z,0.00
2018-12-14T01:06:40.995Z,0.00
2018-12-14T01:07:40.879Z,0.00
2018-12-14T01:08:40.771Z,0.00
2018-12-14T01:09:40.672Z,0.00
2018-12-14T01:10:40.551Z,0.00
2018-12-14T01:11:40.446Z,0.00
2018-12-14T01:12:40.335Z,0.00
2018-12-14T01:13:40.228Z,0.00
2018-12-14T01:14:40.117Z,0.00
2018-12-14T01:15:40.009Z,0.00
2018-12-14T01:16:39.902Z,0.00
2018-12-14T01:17:40.043Z,0.00
2018-12-14T01:18:39.689Z,0.00
2018-12-14T01:19:39.575Z,0.00
2018-12-14T01:20:39.468Z,0.00
2018-12-14T01:21:39.366Z,0.00
2018-12-14T01:22:39.254Z,0.00
2018-12-14T01:23:39.143Z,0.00
2018-12-14T01:24:39.042Z,0.00
2018-12-14T01:25:38.931Z,0.00
2018-12-14T01:26:38.819Z,0.00
2018-12-14T01:27:38.707Z,0.00
2018-12-14T01:28:38.597Z,0.00
2018-12-14T01:29:38.495Z,0.00
2018-12-14T01:30:38.383Z,0.00
2018-12-14T01:31:38.272Z,0.00
2018-12-14T01:32:38.172Z,0.00
2018-12-14T01:33:38.053Z,0.00
2018-12-14T01:34:37.948Z,0.00
2018-12-14T01:35:37.848Z,0.00
2018-12-14T01:36:37.738Z,0.00
2018-12-14T01:37:37.624Z,0.00
2018-12-14T01:38:37.512Z,0.00
2018-12-14T01:39:37.401Z,0.00
2018-12-14T01:40:37.301Z,0.00
2018-12-14T01:41:37.189Z,0.00
2018-12-14T01:42:37.225Z,0.00
2018-12-14T01:43:36.966Z,0.00
2018-12-14T01:44:36.859Z,0.00
2018-12-14T01:45:36.754Z,0.00
2018-12-14T01:46:36.647Z,0.00
2018-12-14T01:47:36.544Z,0.00
2018-12-14T01:48:36.431Z,0.00
2018-12-14T01:49:36.319Z,0.00
2018-12-14T01:50:36.205Z,0.00
2018-12-14T01:51:36.107Z,0.00
2018-12-14T01:52:35.996Z,0.00
2018-12-14T01:53:35.883Z,0.00
2018-12-14T01:54:35.772Z,0.00
2018-12-14T01:55:35.661Z,0.00
2018-12-14T01:56:35.560Z,0.00
2018-12-14T01:57:35.449Z,0.00
2018-12-14T01:58:35.336Z,0.00
2018-12-14T01:59:35.236Z,0.00
2018-12-14T02:00:35.125Z,0.00
2018-12-14T02:01:35.013Z,0.00
2018-12-14T02:02:34.902Z,0.00
2018-12-14T02:03:34.791Z,0.00
2018-12-14T02:04:34.924Z,0.00
2018-12-14T02:05:34.578Z,0.00
2018-12-14T02:06:34.464Z,0.00
2018-12-14T02:07:34.356Z,0.00
2018-12-14T02:08:34.262Z,0.00
2018-12-14T02:09:34.145Z,0.00
2018-12-14T02:10:34.032Z,0.00
2018-12-14T02:11:33.921Z,0.00
2018-12-14T02:12:33.811Z,0.00
2018-12-14T02:13:33.704Z,0.00
2018-12-14T02:14:33.593Z,0.00
2018-12-14T02:15:33.485Z,0.00
2018-12-14T02:16:33.385Z,0.00
2018-12-14T02:17:33.274Z,0.00
2018-12-14T02:18:33.162Z,0.00
2018-12-14T02:19:33.056Z,0.00
2018-12-14T02:20:32.944Z,0.00
2018-12-14T02:21:32.832Z,0.00
2018-12-14T02:22:32.724Z,0.00
2018-12-14T02:23:32.614Z,0.00
2018-12-14T02:24:32.505Z,0.00
2018-12-14T02:25:32.401Z,0.00
2018-12-14T02:26:32.289Z,0.00
2018-12-14T02:27:32.180Z,0.00
2018-12-14T02:28:32.070Z,0.00
2018-12-14T02:29:31.962Z,0.00
2018-12-14T02:30:31.852Z,0.00
2018-12-14T02:31:31.744Z,0.00
2018-12-14T02:32:31.646Z,0.00
2018-12-14T02:33:31.527Z,0.00
2018-12-14T02:34:31.422Z,0.00
2018-12-14T02:35:31.315Z,0.00
2018-12-14T02:36:31.201Z,0.00
2018-12-14T02:37:31.096Z,0.00
2018-12-14T02:38:30.983Z,0.00
2018-12-14T02:39:30.874Z,0.00
2018-12-14T02:40:30.766Z,0.00
2018-12-14T02:41:30.656Z,0.00
2018-12-14T02:42:30.549Z,0.00
2018-12-14T02:43:30.438Z,0.00
2018-12-14T02:44:30.349Z,0.00
2018-12-14T02:45:30.226Z,0.00
2018-12-14T02:46:30.113Z,0.00
2018-12-14T02:47:30.003Z,0.00
2018-12-14T02:48:29.893Z,0.00
2018-12-14T02:49:29.784Z,0.00
2018-12-14T02:50:29.675Z,0.00
2018-12-14T02:51:29.568Z,0.00
2018-12-14T02:52:29.459Z,0.00
2018-12-14T02:53:29.349Z,0.00
2018-12-14T02:54:29.243Z,0.00
2018-12-14T02:55:29.131Z,0.00
2018-12-14T02:56:29.035Z,0.00
2018-12-14T02:57:28.920Z,0.00
2018-12-14T02:58:28.810Z,0.00
2018-12-14T02:59:28.697Z,0.00
2018-12-14T03:00:28.608Z,0.00
2018-12-14T03:01:28.486Z,0.00
2018-12-14T03:02:28.368Z,0.00
2018-12-14T03:03:28.262Z,0.00
2018-12-14T03:04:28.163Z,0.00
2018-12-14T03:05:28.044Z,0.00
2018-12-14T03:06:27.933Z,0.00
2018-12-14T03:07:27.825Z,0.00
2018-12-14T03:08:27.715Z,0.00
2018-12-14T03:09:27.606Z,0.00
2018-12-14T03:10:27.502Z,0.00
2018-12-14T03:11:27.392Z,0.00
2018-12-14T03:12:27.280Z,0.00
2018-12-14T03:13:27.179Z,0.00
2018-12-14T03:14:27.068Z,0.00
2018-12-14T03:15:26.955Z,0.00
2018-12-14T03:16:26.843Z,0.00
2018-12-14T03:17:26.745Z,0.00
2018-12-14T03:18:26.654Z,0.00
2018-12-14T03:19:26.517Z,0.00
2018-12-14T03:20:26.408Z,0.00
2018-12-14T03:21:26.443Z,0.00
2018-12-14T03:22:26.190Z,0.00
2018-12-14T03:23:26.084Z,0.00
2018-12-14T03:24:25.975Z,0.00
2018-12-14T03:25:25.865Z,0.00
2018-12-14T03:26:25.762Z,0.00
2018-12-14T03:27:25.946Z,0.00
2018-12-14T03:28:25.537Z,0.00
2018-12-14T03:29:25.438Z,0.00
2018-12-14T03:30:25.348Z,0.00
2018-12-14T03:31:25.217Z,0.00
2018-12-14T03:32:25.102Z,0.00
2018-12-14T03:33:24.996Z,0.00
2018-12-14T03:34:24.892Z,0.00
2018-12-14T03:35:24.780Z,0.00
2018-12-14T03:36:24.667Z,0.00
2018-12-14T03:37:24.806Z,0.00
2018-12-14T03:38:24.457Z,0.00
2018-12-14T03:39:24.345Z,0.00
2018-12-14T03:40:24.232Z,0.00
2018-12-14T03:41:24.120Z,0.00
2018-12-14T03:42:24.020Z,0.00
2018-12-14T03:43:23.903Z,0.00
2018-12-14T03:44:23.794Z,0.00
2018-12-14T03:45:23.686Z,0.00
2018-12-14T03:46:23.575Z,0.00
2018-12-14T03:47:23.474Z,0.00
2018-12-14T03:48:23.363Z,0.00
2018-12-14T03:49:23.249Z,0.00
2018-12-14T03:50:23.140Z,0.00
2018-12-14T03:51:23.040Z,0.00
2018-12-14T03:52:22.930Z,0.00
2018-12-14T03:53:22.817Z,0.00
2018-12-14T03:54:22.704Z,0.00
2018-12-14T03:55:22.595Z,0.00
2018-12-14T03:56:22.487Z,0.00
2018-12-14T03:57:22.377Z,0.00
2018-12-14T03:58:22.267Z,0.00
2018-12-14T03:59:22.160Z,0.00
2018-12-14T04:00:22.055Z,0.00
2018-12-14T04:01:21.942Z,0.00
2018-12-14T04:02:21.831Z,0.00
2018-12-14T04:03:21.723Z,0.00
2018-12-14T04:04:21.615Z,0.00
2018-12-14T04:05:21.510Z,0.00
2018-12-14T04:06:21.399Z,0.00
2018-12-14T04:07:21.287Z,0.00
2018-12-14T04:08:21.189Z,0.00
2018-12-14T04:09:21.075Z,0.00
2018-12-14T04:10:20.964Z,0.00
2018-12-14T04:11:20.852Z,0.00
2018-12-14T04:12:20.758Z,0.00
2018-12-14T04:13:20.639Z,0.00
2018-12-14T04:14:20.529Z,0.00
2018-12-14T04:15:20.415Z,0.00
2018-12-14T04:16:20.321Z,0.00
2018-12-14T04:17:20.206Z,0.00
2018-12-14T04:18:20.090Z,0.00
2018-12-14T04:19:19.981Z,0.00
2018-12-14T04:20:19.882Z,0.00
2018-12-14T04:21:19.770Z,0.00
2018-12-14T04:22:19.679Z,0.00
2018-12-14T04:23:19.546Z,0.00
2018-12-14T04:24:19.436Z,0.00
2018-12-14T04:25:19.331Z,0.00
2018-12-14T04:26:19.221Z,0.00
2018-12-14T04:27:19.110Z,0.00
2018-12-14T04:28:18.999Z,0.00
2018-12-14T04:29:18.898Z,0.00
2018-12-14T04:30:18.790Z,0.00
2018-12-14T04:31:18.673Z,0.00
2018-12-14T04:32:18.562Z,0.00
2018-12-14T04:33:18.464Z,0.00
2018-12-14T04:34:18.344Z,0.00
2018-12-14T04:35:18.235Z,0.00
2018-12-14T04:36:18.128Z,0.00
2018-12-14T04:37:18.027Z,0.00
2018-12-14T04:38:17.917Z,0.00
2018-12-14T04:39:17.803Z,0.00
2018-12-14T04:40:17.689Z,0.00
2018-12-14T04:41:17.581Z,0.00
2018-12-14T04:42:17.470Z,0.00
2018-12-14T04:43:17.364Z,0.00
2018-12-14T04:44:17.259Z,0.00
2018-12-14T04:45:17.146Z,0.00
2018-12-14T04:46:17.034Z,0.00
2018-12-14T04:47:16.935Z,0.00
2018-12-14T04:48:16.825Z,0.00
2018-12-14T04:49:16.711Z,0.00
2018-12-14T04:50:16.602Z,0.00
2018-12-14T04:51:16.498Z,0.00
2018-12-14T04:52:16.388Z,0.00
2018-12-14T04:53:16.275Z,0.00
2018-12-14T04:54:16.160Z,0.00
2018-12-14T04:55:16.052Z,0.00
2018-12-14T04:56:15.945Z,0.00
2018-12-14T04:57:15.834Z,0.00
2018-12-14T04:58:15.724Z,0.00
2018-12-14T04:59:15.618Z,0.00
2018-12-14T05:00:15.508Z,0.00
2018-12-14T05:01:15.399Z,0.00
2018-12-14T05:02:15.288Z,0.00
2018-12-14T05:03:15.181Z,0.00
2018-12-14T05:04:15.071Z,0.00
2018-12-14T05:05:14.969Z,0.00
2018-12-14T05:06:14.858Z,0.00
2018-12-14T05:07:14.748Z,0.00
2018-12-14T05:08:14.645Z,0.00
2018-12-14T05:09:14.524Z,0.00
2018-12-14T05:10:14.414Z,0.00
2018-12-14T05:11:14.305Z,0.00
2018-12-14T05:12:14.199Z,0.00
2018-12-14T05:13:14.088Z,0.00
2018-12-14T05:14:13.987Z,0.00
2018-12-14T05:15:13.878Z,0.00
2018-12-14T05:16:13.764Z,0.00
2018-12-14T05:17:13.650Z,0.00
2018-12-14T05:18:13.554Z,0.00
2018-12-14T05:19:13.441Z,0.00
2018-12-14T05:20:13.341Z,0.00
2018-12-14T05:21:13.218Z,0.00
2018-12-14T05:22:13.103Z,0.00
2018-12-14T05:23:13.003Z,0.00
2018-12-14T05:24:12.892Z,0.00
2018-12-14T05:25:12.780Z,0.00
2018-12-14T05:26:12.669Z,0.00
2018-12-14T05:27:12.570Z,0.00
2018-12-14T05:28:12.452Z,0.00
2018-12-14T05:29:12.351Z,0.00
2018-12-14T05:30:12.233Z,0.00
2018-12-14T05:31:12.133Z,0.00
2018-12-14T05:32:12.023Z,0.00
2018-12-14T05:33:11.911Z,0.00
2018-12-14T05:34:11.799Z,0.00
2018-12-14T05:35:11.686Z,0.00
2018-12-14T05:36:11.588Z,0.00
2018-12-14T05:37:11.475Z,0.00
2018-12-14T05:38:11.362Z,0.00
2018-12-14T05:39:11.251Z,0.00
2018-12-14T05:40:11.142Z,0.00
2018-12-14T05:41:11.038Z,0.00
2018-12-14T05:42:10.927Z,0.00
2018-12-14T05:43:10.830Z,0.00
2018-12-14T05:44:10.729Z,0.00
2018-12-14T05:45:10.605Z,0.00
2018-12-14T05:46:10.491Z,0.00
2018-12-14T05:47:10.381Z,0.00
2018-12-14T05:48:10.268Z,0.00
2018-12-14T05:49:10.169Z,0.00
2018-12-14T05:50:10.057Z,0.00
2018-12-14T05:51:09.944Z,0.00
2018-12-14T05:52:09.833Z,0.00
2018-12-14T05:53:09.735Z,0.00
2018-12-14T05:54:09.621Z,0.00
2018-12-14T05:55:09.511Z,0.00
2018-12-14T05:56:09.398Z,0.00
2018-12-14T05:57:09.299Z,0.00
2018-12-14T05:58:09.188Z,0.00
2018-12-14T05:59:09.073Z,0.00
2018-12-14T06:00:08.964Z,0.00
2018-12-14T06:01:08.851Z,0.00
2018-12-14T06:02:08.751Z,0.00
2018-12-14T06:03:08.632Z,0.00
2018-12-14T06:04:08.527Z,0.00
2018-12-14T06:05:08.415Z,0.00
2018-12-14T06:06:08.316Z,0.00
2018-12-14T06:07:08.205Z,0.00
2018-12-14T06:08:08.086Z,0.00
2018-12-14T06:09:07.981Z,0.00
2018-12-14T06:10:07.870Z,0.00
2018-12-14T06:11:07.760Z,0.00
2018-12-14T06:12:07.656Z,0.00
2018-12-14T06:13:09.251Z,0.00
2018-12-14T06:14:07.434Z,0.00
2018-12-14T06:15:07.333Z,0.00
2018-12-14T06:16:07.222Z,0.00
2018-12-14T06:17:07.109Z,0.00
2018-12-14T06:18:07.010Z,0.00
2018-12-14T06:19:06.889Z,0.00
2018-12-14T06:20:06.786Z,0.00
2018-12-14T06:21:06.674Z,0.00
2018-12-14T06:22:06.910Z,0.00
2018-12-14T06:23:06.451Z,0.00
2018-12-14T06:24:06.342Z,0.00
2018-12-14T06:25:06.245Z,0.00
2018-12-14T06:26:06.127Z,0.00
2018-12-14T06:27:06.014Z,0.00
2018-12-14T06:28:05.915Z,0.00
2018-12-14T06:29:05.796Z,0.00
2018-12-14T06:30:05.694Z,0.00
2018-12-14T06:31:05.580Z,0.00
2018-12-14T06:32:05.469Z,0.00
2018-12-14T06:33:05.368Z,4.00
2018-12-14T06:34:05.257Z,4.00
2018-12-14T06:35:05.141Z,0.00
2018-12-14T06:36:05.033Z,4.00
2018-12-14T06:37:04.936Z,4.00
2018-12-14T06:38:04.813Z,0.00
2018-12-14T06:39:04.709Z,4.00
2018-12-14T06:40:04.599Z,8.00
2018-12-14T06:41:04.489Z,4.00
2018-12-14T06:42:04.380Z,8.00
2018-12-14T06:43:04.267Z,8.00
2018-12-14T06:44:04.158Z,8.00
2018-12-14T06:45:04.049Z,12.00
2018-12-14T06:46:03.950Z,12.00
2018-12-14T06:47:03.830Z,12.00
2018-12-14T06:48:03.726Z,12.00
2018-12-14T06:49:03.618Z,16.00
2018-12-14T06:50:03.503Z,16.00
2018-12-14T06:51:03.403Z,20.00
2018-12-14T06:52:03.284Z,20.00
2018-12-14T06:53:03.184Z,24.00
2018-12-14T06:54:03.071Z,28.00
2018-12-14T06:55:02.957Z,32.00
2018-12-14T06:56:02.848Z,36.00
2018-12-14T06:57:02.739Z,40.00
2018-12-14T06:58:02.629Z,48.00
2018-12-14T06:59:02.521Z,52.00
2018-12-14T07:00:02.411Z,56.00
2018-12-14T07:01:02.308Z,64.00
2018-12-14T07:02:02.192Z,68.00
2018-12-14T07:03:02.083Z,76.00
2018-12-14T07:04:01.976Z,80.00
2018-12-14T07:05:01.874Z,88.00
2018-12-14T07:06:01.817Z,96.00
2018-12-14T07:07:04.287Z,104.00
2018-12-14T07:08:01.539Z,116.00
2018-12-14T07:09:01.436Z,124.00
2018-12-14T07:10:01.320Z,132.00
2018-12-14T07:11:01.214Z,144.00
2018-12-14T07:12:01.103Z,152.00
2018-12-14T07:13:00.993Z,160.00
2018-12-14T07:14:00.883Z,172.00
2018-12-14T07:15:00.774Z,180.00
2018-12-14T07:16:00.667Z,192.00
2018-12-14T07:17:00.576Z,200.00
2018-12-14T07:18:00.456Z,212.00
2018-12-14T07:19:00.344Z,224.00
2018-12-14T07:20:00.235Z,236.00
2018-12-14T07:21:00.125Z,252.00
2018-12-14T07:22:00.020Z,264.00
2018-12-14T07:22:59.915Z,280.00
2018-12-14T07:23:59.796Z,300.00
2018-12-14T07:24:59.683Z,312.00
2018-12-14T07:25:59.573Z,328.00
2018-12-14T07:26:59.473Z,336.00
2018-12-14T07:27:59.374Z,344.00
2018-12-14T07:28:59.249Z,356.00
2018-12-14T07:29:59.138Z,380.00
2018-12-14T07:30:59.039Z,400.00
2018-12-14T07:31:58.926Z,416.00
2018-12-14T07:32:58.811Z,432.00
2018-12-14T07:33:58.701Z,448.00
2018-12-14T07:34:58.611Z,468.00
2018-12-14T07:35:58.491Z,480.00
2018-12-14T07:36:58.379Z,492.00
2018-12-14T07:37:58.268Z,504.00
2018-12-14T07:38:58.192Z,524.00
2018-12-14T07:39:58.047Z,544.00
2018-12-14T07:40:58.013Z,560.00
2018-12-14T07:41:57.831Z,584.00
2018-12-14T07:42:57.720Z,608.00
2018-12-14T07:43:57.621Z,620.00
2018-12-14T07:44:57.579Z,624.00
2018-12-14T07:45:57.398Z,624.00
2018-12-14T07:46:57.284Z,648.00
2018-12-14T07:47:57.174Z,672.00
2018-12-14T07:48:57.074Z,716.00
2018-12-14T07:49:56.957Z,756.00
2018-12-14T07:50:56.850Z,784.00
2018-12-14T07:51:56.738Z,800.00
2018-12-14T07:52:56.639Z,808.00
2018-12-14T07:53:56.528Z,828.00
2018-12-14T07:54:56.414Z,856.00
2018-12-14T07:55:56.303Z,888.00
2018-12-14T07:56:56.192Z,916.00
2018-12-14T07:57:56.091Z,936.00
2018-12-14T07:58:55.980Z,960.00
2018-12-14T07:59:55.871Z,984.00
2018-12-14T08:00:55.754Z,1008.00
2018-12-14T08:01:55.894Z,1036.00
2018-12-14T08:02:55.544Z,1068.00
2018-12-14T08:03:55.433Z,1096.00
2018-12-14T08:04:55.318Z,1100.00
2018-12-14T08:05:55.208Z,1108.00
2018-12-14T08:06:55.101Z,1136.00
2018-12-14T08:07:54.999Z,1160.00
2018-12-14T08:08:54.885Z,1180.00
2018-12-14T08:09:54.773Z,1192.00
2018-12-14T08:10:54.663Z,1212.00
2018-12-14T08:11:54.565Z,1248.00
2018-12-14T08:12:54.450Z,1284.00
2018-12-14T08:13:54.337Z,1312.00
2018-12-14T08:14:54.226Z,1328.00
2018-12-14T08:15:54.117Z,1340.00
2018-12-14T08:16:54.008Z,1360.00
2018-12-14T08:17:53.902Z,1380.00
2018-12-14T08:18:53.792Z,1404.00
2018-12-14T08:19:53.692Z,1432.00
2018-12-14T08:20:53.581Z,1464.00
2018-12-14T08:21:53.471Z,1492.00
2018-12-14T08:22:53.357Z,1524.00
2018-12-14T08:23:53.244Z,1552.00
2018-12-14T08:24:53.148Z,1568.00
2018-12-14T08:25:53.026Z,1600.00
2018-12-14T08:26:52.917Z,1632.00
2018-12-14T08:27:52.808Z,1668.00
2018-12-14T08:28:52.700Z,1704.00
2018-12-14T08:29:52.590Z,1744.00
2018-12-14T08:30:52.481Z,1792.00
2018-12-14T08:31:52.374Z,1844.00
2018-12-14T08:32:52.263Z,1888.00
2018-12-14T08:33:52.162Z,1912.00
2018-12-14T08:34:52.051Z,1936.00
2018-12-14T08:35:51.938Z,1972.00
2018-12-14T08:36:51.829Z,1992.00
2018-12-14T08:37:51.728Z,2020.00
2018-12-14T08:38:51.614Z,2048.00
2018-12-14T08:39:51.505Z,2088.00
2018-12-14T08:40:51.391Z,2104.00
2018-12-14T08:41:51.297Z,2120.00
2018-12-14T08:42:51.187Z,2160.00
2018-12-14T08:43:51.067Z,2220.00
2018-12-14T08:44:50.956Z,2256.00
2018-12-14T08:45:50.847Z,2280.00
2018-12-14T08:46:50.744Z,2296.00
2018-12-14T08:47:50.628Z,2312.00
2018-12-14T08:48:50.519Z,2340.00
2018-12-14T08:49:50.409Z,2372.00
2018-12-14T08:50:50.310Z,2392.00
2018-12-14T08:51:50.192Z,2404.00
2018-12-14T08:52:50.083Z,2420.00
2018-12-14T08:53:49.973Z,2444.00
2018-12-14T08:54:49.875Z,2472.00
2018-12-14T08:55:49.762Z,2512.00
2018-12-14T08:56:49.651Z,2564.00
2018-12-14T08:57:49.539Z,2612.00
2018-12-14T08:58:49.440Z,2668.00
2018-12-14T08:59:49.327Z,2744.00
2018-12-14T09:00:49.215Z,2816.00
2018-12-14T09:01:49.106Z,2860.00
2018-12-14T09:02:48.994Z,2892.00
2018-12-14T09:03:48.888Z,2900.00
2018-12-14T09:04:48.779Z,2900.00
2018-12-14T09:05:48.668Z,2912.00
2018-12-14T09:06:48.559Z,2908.00
2018-12-14T09:07:48.450Z,2916.00
2018-12-14T09:08:48.345Z,2944.00
2018-12-14T09:09:48.233Z,2992.00
2018-12-14T09:10:48.133Z,3028.00
2018-12-14T09:11:48.022Z,3068.00
2018-12-14T09:12:47.910Z,3116.00
2018-12-14T09:13:48.100Z,3148.00
2018-12-14T09:14:47.689Z,3176.00
2018-12-14T09:15:47.586Z,3188.00
2018-12-14T09:16:47.487Z,3180.00
2018-12-14T09:17:47.362Z,3200.00
2018-12-14T09:18:47.263Z,3196.00
2018-12-14T09:19:47.153Z,3180.00
2018-12-14T09:20:47.040Z,3172.00
2018-12-14T09:21:46.928Z,3188.00
2018-12-14T09:22:46.833Z,3220.00
2018-12-14T09:23:46.711Z,3244.00
2018-12-14T09:24:46.604Z,3268.00
2018-12-14T09:25:46.494Z,3288.00
2018-12-14T09:26:46.392Z,3316.00
2018-12-14T09:27:46.281Z,3324.00
2018-12-14T09:28:46.168Z,3324.00
2018-12-14T09:29:46.069Z,3352.00
2018-12-14T09:30:45.960Z,3376.00
2018-12-14T09:31:45.845Z,3384.00
2018-12-14T09:32:45.733Z,3404.00
2018-12-14T09:33:45.637Z,3416.00
2018-12-14T09:34:45.522Z,3452.00
2018-12-14T09:35:45.411Z,3476.00
2018-12-14T09:36:45.299Z,3484.00
2018-12-14T09:37:45.199Z,3484.00
2018-12-14T09:38:45.088Z,3504.00
2018-12-14T09:39:44.972Z,3552.00
2018-12-14T09:40:44.863Z,3568.00
2018-12-14T09:41:44.765Z,3560.00
2018-12-14T09:42:44.651Z,3580.00
2018-12-14T09:43:44.543Z,3604.00
2018-12-14T09:44:44.429Z,3632.00
2018-12-14T09:45:44.320Z,3660.00
2018-12-14T09:46:44.217Z,3680.00
2018-12-14T09:47:44.105Z,3688.00
2018-12-14T09:48:44.012Z,3716.00
2018-12-14T09:49:43.894Z,3760.00
2018-12-14T09:50:43.781Z,3848.00
2018-12-14T09:51:43.678Z,3916.00
2018-12-14T09:52:43.560Z,3948.00
2018-12-14T09:53:43.457Z,3988.00
2018-12-14T09:54:43.342Z,4004.00
2018-12-14T09:55:43.234Z,3984.00
2018-12-14T09:56:43.138Z,3956.00
2018-12-14T09:57:43.023Z,3928.00
2018-12-14T09:58:42.910Z,3904.00
2018-12-14T09:59:42.799Z,3884.00
2018-12-14T10:00:42.699Z,3860.00
2018-12-14T10:01:42.600Z,3800.00
2018-12-14T10:02:42.472Z,3744.00
2018-12-14T10:03:42.363Z,3744.00
2018-12-14T10:04:42.263Z,3792.00
2018-12-14T10:05:42.145Z,3848.00
2018-12-14T10:06:42.038Z,3856.00
2018-12-14T10:07:46.790Z,3784.00
2018-12-14T10:08:41.829Z,3692.00
2018-12-14T10:09:41.716Z,3632.00
2018-12-14T10:10:41.606Z,3648.00
2018-12-14T10:11:41.506Z,3720.00
2018-12-14T10:12:41.386Z,3812.00
2018-12-14T10:13:41.277Z,3912.00
2018-12-14T10:14:41.168Z,4012.00
2018-12-14T10:15:41.060Z,4132.00
2018-12-14T10:16:40.960Z,4212.00
2018-12-14T10:17:40.846Z,4260.00
2018-12-14T10:18:40.734Z,4268.00
2018-12-14T10:19:40.697Z,4280.00
2018-12-14T10:20:40.522Z,4300.00
2018-12-14T10:21:40.412Z,4336.00
2018-12-14T10:22:41.582Z,4340.00
2018-12-14T10:23:40.191Z,4308.00
2018-12-14T10:24:40.088Z,4252.00
2018-12-14T10:25:39.978Z,4224.00
2018-12-14T10:26:39.875Z,4264.00
2018-12-14T10:27:39.765Z,4316.00
2018-12-14T10:28:39.648Z,4368.00
2018-12-14T10:29:39.543Z,4396.00
2018-12-14T10:30:39.444Z,4432.00
2018-12-14T10:31:39.329Z,4448.00
2018-12-14T10:32:39.218Z,4424.00
2018-12-14T10:33:39.105Z,4396.00
2018-12-14T10:34:38.997Z,4396.00
2018-12-14T10:35:38.889Z,4420.00
2018-12-14T10:36:38.781Z,4476.00
2018-12-14T10:37:38.671Z,4532.00
2018-12-14T10:38:38.563Z,4592.00
2018-12-14T10:39:38.458Z,4680.00
2018-12-14T10:40:38.600Z,4784.00
2018-12-14T10:41:38.247Z,4892.00
2018-12-14T10:42:38.135Z,4948.00
2018-12-14T10:43:38.021Z,4952.00
2018-12-14T10:44:37.925Z,4912.00
2018-12-14T10:45:37.812Z,4912.00
2018-12-14T10:46:37.696Z,4940.00
2018-12-14T10:47:37.588Z,4952.00
2018-12-14T10:48:37.488Z,4908.00
2018-12-14T10:49:37.377Z,4824.00
2018-12-14T10:50:39.653Z,4740.00
2018-12-14T10:51:37.155Z,4684.00
2018-12-14T10:52:37.046Z,4692.00
2018-12-14T10:53:36.941Z,4740.00
2018-12-14T10:54:36.830Z,4776.00
2018-12-14T10:55:36.732Z,4832.00
2018-12-14T10:56:36.613Z,4912.00
2018-12-14T10:57:36.503Z,4940.00
2018-12-14T10:58:36.406Z,4964.00
2018-12-14T10:59:36.287Z,5040.00
2018-12-14T11:00:36.184Z,5072.00
2018-12-14T11:01:36.071Z,5104.00
2018-12-14T11:02:35.973Z,5124.00
2018-12-14T11:03:35.860Z,5160.00
2018-12-14T11:04:35.746Z,5216.00
2018-12-14T11:05:35.649Z,5256.00
2018-12-14T11:06:35.540Z,5272.00
2018-12-14T11:07:35.424Z,5272.00
2018-12-14T11:08:35.313Z,5260.00
2018-12-14T11:09:35.213Z,5256.00
2018-12-14T11:10:35.096Z,5292.00
2018-12-14T11:11:34.993Z,5320.00
2018-12-14T11:12:34.879Z,5356.00
2018-12-14T11:13:34.771Z,5388.00
2018-12-14T11:14:34.663Z,5412.00
2018-12-14T11:15:34.555Z,5428.00
2018-12-14T11:16:34.453Z,5468.00
2018-12-14T11:17:34.342Z,5520.00
2018-12-14T11:18:34.230Z,5584.00
2018-12-14T11:19:34.122Z,5628.00
2018-12-14T11:20:34.019Z,5616.00
2018-12-14T11:21:33.906Z,5552.00
2018-12-14T11:22:33.797Z,5468.00
2018-12-14T11:23:33.689Z,5396.00
2018-12-14T11:24:33.587Z,5372.00
2018-12-14T11:25:33.496Z,5356.00
2018-12-14T11:26:33.365Z,5296.00
2018-12-14T11:27:33.257Z,5200.00
2018-12-14T11:28:33.149Z,5108.00
2018-12-14T11:29:33.042Z,5048.00
2018-12-14T11:30:32.932Z,5024.00
2018-12-14T11:31:32.824Z,5036.00
2018-12-14T11:32:32.717Z,5032.00
2018-12-14T11:33:32.612Z,4996.00
2018-12-14T11:34:32.502Z,4932.00
2018-12-14T11:35:32.403Z,4916.00
2018-12-14T11:36:32.303Z,4928.00
2018-12-14T11:37:32.181Z,4912.00
2018-12-14T11:38:32.067Z,4888.00
2018-12-14T11:39:31.966Z,4844.00
2018-12-14T11:40:31.855Z,4804.00
2018-12-14T11:41:31.743Z,4768.00
2018-12-14T11:42:31.644Z,4768.00
2018-12-14T11:43:31.532Z,4788.00
2018-12-14T11:44:31.420Z,4804.00
2018-12-14T11:45:31.320Z,4812.00
2018-12-14T11:46:31.209Z,4784.00
2018-12-14T11:47:31.099Z,4716.00
2018-12-14T11:48:30.996Z,4640.00
2018-12-14T11:49:30.885Z,4572.00
2018-12-14T11:50:30.774Z,4540.00
2018-12-14T11:51:30.665Z,4536.00
2018-12-14T11:52:30.558Z,4576.00
2018-12-14T11:53:30.450Z,4600.00
2018-12-14T11:54:30.354Z,4588.00
2018-12-14T11:55:30.240Z,4612.00
2018-12-14T11:56:30.127Z,4640.00
2018-12-14T11:57:30.027Z,4660.00
2018-12-14T11:58:29.915Z,4628.00
2018-12-14T11:59:29.803Z,4568.00
2018-12-14T12:00:29.703Z,4484.00
2018-12-14T12:01:29.593Z,4424.00
2018-12-14T12:02:29.479Z,4408.00
2018-12-14T12:03:29.379Z,4392.00
2018-12-14T12:04:29.270Z,4396.00
2018-12-14T12:05:29.156Z,4408.00
2018-12-14T12:06:29.056Z,4400.00
2018-12-14T12:07:28.946Z,4400.00
2018-12-14T12:08:28.833Z,4372.00
2018-12-14T12:09:28.734Z,4360.00
2018-12-14T12:10:28.623Z,4336.00
2018-12-14T12:11:28.509Z,4312.00
2018-12-14T12:12:28.410Z,4296.00
2018-12-14T12:13:28.299Z,4268.00
2018-12-14T12:14:28.188Z,4212.00
2018-12-14T12:15:28.087Z,4164.00
2018-12-14T12:16:27.977Z,4120.00
2018-12-14T12:17:27.861Z,4120.00
2018-12-14T12:18:27.754Z,4140.00
2018-12-14T12:19:27.646Z,4136.00
2018-12-14T12:20:27.538Z,4108.00
2018-12-14T12:21:27.432Z,4048.00
2018-12-14T12:22:27.329Z,4000.00
2018-12-14T12:23:27.220Z,3924.00
2018-12-14T12:24:27.108Z,3868.00
2018-12-14T12:25:26.998Z,3824.00
2018-12-14T12:26:26.898Z,3780.00
2018-12-14T12:27:26.783Z,3748.00
2018-12-14T12:28:26.682Z,3704.00
2018-12-14T12:29:26.569Z,3652.00
2018-12-14T12:30:26.457Z,3600.00
2018-12-14T12:31:26.349Z,3548.00
2018-12-14T12:32:26.242Z,3512.00
2018-12-14T12:33:26.135Z,3496.00
2018-12-14T12:34:26.024Z,3492.00
2018-12-14T12:35:25.923Z,3492.00
2018-12-14T12:36:25.813Z,3484.00
2018-12-14T12:37:25.699Z,3480.00
2018-12-14T12:38:25.594Z,3468.00
2018-12-14T12:39:25.485Z,3468.00
2018-12-14T12:40:25.375Z,3452.00
2018-12-14T12:41:25.279Z,3412.00
2018-12-14T12:42:25.166Z,3340.00
2018-12-14T12:43:25.050Z,3284.00
2018-12-14T12:44:24.960Z,3236.00